sensor_id;sensor_type;location;lat;lon;timestamp;pressure;altitude;pressure_sealevel;temperature;humidity
25156;BME280;71253;51.496;7.606;2023-12-20T00:04:43;99990.03;;;6.06;100.00
25156;BME280;71253;51.496;7.606;2023-12-20T00:09:45;99993.34;;;6.00;100.00
25156;BME280;71253;51.496;7.606;2023-12-20T00:14:46;100002.78;;;6.03;100.00
25156;BME280;71253;51.496;7.606;2023-12-20T00:19:48;99994.97;;;5.95;100.00
25156;BME280;71253;51.496;7.606;2023-12-20T00:24:50;99991.53;;;5.95;100.00
25156;BME280;71253;51.496;7.606;2023-12-20T00:29:51;99988.09;;;5.93;100.00
25156;BME280;71253;51.496;7.606;2023-12-20T00:34:53;99978.44;;;5.83;100.00
25156;BME280;71253;51.496;7.606;2023-12-20T00:39:54;100004.91;;;5.80;100.00
25156;BME280;71253;51.496;7.606;2023-12-20T00:44:56;99996.44;;;5.83;100.00
25156;BME280;71253;51.496;7.606;2023-12-20T00:49:58;99998.16;;;5.85;100.00
25156;BME280;71253;51.496;7.606;2023-12-20T00:54:59;100007.75;;;5.92;100.00
25156;BME280;71253;51.496;7.606;2023-12-20T01:00:01;100005.03;;;5.86;100.00
25156;BME280;71253;51.496;7.606;2023-12-20T01:05:03;100012.59;;;5.78;100.00
25156;BME280;71253;51.496;7.606;2023-12-20T01:10:05;100024.50;;;5.73;100.00
25156;BME280;71253;51.496;7.606;2023-12-20T01:15:06;100024.47;;;5.72;100.00
25156;BME280;71253;51.496;7.606;2023-12-20T01:20:08;100035.63;;;5.75;100.00
25156;BME280;71253;51.496;7.606;2023-12-20T01:25:10;100026.81;;;5.61;100.00
25156;BME280;71253;51.496;7.606;2023-12-20T01:30:12;100042.88;;;5.51;100.00
25156;BME280;71253;51.496;7.606;2023-12-20T01:35:13;100042.66;;;5.42;100.00
25156;BME280;71253;51.496;7.606;2023-12-20T01:40:15;100049.47;;;5.38;100.00
25156;BME280;71253;51.496;7.606;2023-12-20T01:45:17;100047.81;;;5.42;100.00
25156;BME280;71253;51.496;7.606;2023-12-20T01:50:18;100047.75;;;5.39;100.00
25156;BME280;71253;51.496;7.606;2023-12-20T01:55:20;100040.75;;;5.32;100.00
25156;BME280;71253;51.496;7.606;2023-12-20T02:00:22;100045.03;;;5.33;100.00
25156;BME280;71253;51.496;7.606;2023-12-20T02:05:25;100043.31;;;5.32;100.00
25156;BME280;71253;51.496;7.606;2023-12-20T02:10:27;100052.44;;;5.17;100.00
25156;BME280;71253;51.496;7.606;2023-12-20T02:15:28;100051.88;;;4.93;100.00
25156;BME280;71253;51.496;7.606;2023-12-20T02:20:30;100056.47;;;4.70;100.00
25156;BME280;71253;51.496;7.606;2023-12-20T02:25:31;100029.13;;;4.70;100.00
25156;BME280;71253;51.496;7.606;2023-12-20T02:30:33;100041.09;;;4.71;100.00
25156;BME280;71253;51.496;7.606;2023-12-20T02:35:34;100044.69;;;4.78;100.00
25156;BME280;71253;51.496;7.606;2023-12-20T02:40:36;100037.16;;;4.84;100.00
25156;BME280;71253;51.496;7.606;2023-12-20T02:45:37;100044.94;;;4.89;100.00
25156;BME280;71253;51.496;7.606;2023-12-20T02:50:39;100039.75;;;4.86;100.00
25156;BME280;71253;51.496;7.606;2023-12-20T02:55:41;100038.81;;;4.82;100.00
25156;BME280;71253;51.496;7.606;2023-12-20T03:00:42;100026.06;;;4.85;100.00
25156;BME280;71253;51.496;7.606;2023-12-20T03:05:45;100036.44;;;4.90;100.00
25156;BME280;71253;51.496;7.606;2023-12-20T03:10:47;100035.56;;;4.89;100.00
25156;BME280;71253;51.496;7.606;2023-12-20T03:15:48;100030.38;;;4.88;100.00
25156;BME280;71253;51.496;7.606;2023-12-20T03:20:50;100025.31;;;4.89;100.00
25156;BME280;71253;51.496;7.606;2023-12-20T03:25:51;100025.31;;;4.89;100.00
25156;BME280;71253;51.496;7.606;2023-12-20T03:30:53;100023.63;;;4.90;100.00
25156;BME280;71253;51.496;7.606;2023-12-20T03:35:54;100035.50;;;4.88;100.00
25156;BME280;71253;51.496;7.606;2023-12-20T03:40:56;100030.38;;;4.88;100.00
25156;BME280;71253;51.496;7.606;2023-12-20T03:45:58;100041.56;;;4.90;100.00
25156;BME280;71253;51.496;7.606;2023-12-20T03:50:59;100041.38;;;4.84;100.00
25156;BME280;71253;51.496;7.606;2023-12-20T03:56:01;100036.78;;;4.69;100.00
25156;BME280;71253;51.496;7.606;2023-12-20T04:01:02;100040.19;;;4.68;100.00
25156;BME280;71253;51.496;7.606;2023-12-20T04:06:04;100035.06;;;4.68;100.00
25156;BME280;71253;51.496;7.606;2023-12-20T04:11:06;100034.28;;;4.72;100.00
25156;BME280;71253;51.496;7.606;2023-12-20T04:16:07;100039.28;;;4.66;100.00
25156;BME280;71253;51.496;7.606;2023-12-20T04:21:09;100024.25;;;4.45;100.00
25156;BME280;71253;51.496;7.606;2023-12-20T04:26:10;100025.94;;;4.44;100.00
25156;BME280;71253;51.496;7.606;2023-12-20T04:31:12;100024.22;;;4.43;100.00
25156;BME280;71253;51.496;7.606;2023-12-20T04:36:13;100028.59;;;4.47;100.00
25156;BME280;71253;51.496;7.606;2023-12-20T04:41:15;100022.72;;;4.52;100.00
25156;BME280;71253;51.496;7.606;2023-12-20T04:46:17;100027.84;;;4.52;100.00
25156;BME280;71253;51.496;7.606;2023-12-20T04:51:18;100031.94;;;4.45;100.00
25156;BME280;71253;51.496;7.606;2023-12-20T04:56:20;100038.13;;;4.53;100.00
25156;BME280;71253;51.496;7.606;2023-12-20T05:01:21;100032.16;;;4.54;100.00
25156;BME280;71253;51.496;7.606;2023-12-20T05:06:23;100030.50;;;4.56;100.00
25156;BME280;71253;51.496;7.606;2023-12-20T05:11:25;100026.28;;;4.58;100.00
25156;BME280;71253;51.496;7.606;2023-12-20T05:16:26;100033.22;;;4.62;100.00
25156;BME280;71253;51.496;7.606;2023-12-20T05:21:28;100032.31;;;4.60;100.00
25156;BME280;71253;51.496;7.606;2023-12-20T05:26:29;100037.44;;;4.60;100.00
25156;BME280;71253;51.496;7.606;2023-12-20T05:31:31;100039.84;;;4.54;100.00
25156;BME280;71253;51.496;7.606;2023-12-20T05:36:33;100039.53;;;4.40;100.00
25156;BME280;71253;51.496;7.606;2023-12-20T05:41:34;100027.63;;;4.42;100.00
25156;BME280;71253;51.496;7.606;2023-12-20T05:46:36;100017.25;;;4.38;100.00
25156;BME280;71253;51.496;7.606;2023-12-20T05:51:37;100023.94;;;4.33;100.00
25156;BME280;71253;51.496;7.606;2023-12-20T05:56:39;100021.38;;;4.33;100.00
25156;BME280;71253;51.496;7.606;2023-12-20T06:01:41;100026.59;;;4.36;100.00
25156;BME280;71253;51.496;7.606;2023-12-20T06:06:42;100020.50;;;4.31;100.00
25156;BME280;71253;51.496;7.606;2023-12-20T06:11:44;100019.56;;;4.29;100.00
25156;BME280;71253;51.496;7.606;2023-12-20T06:16:46;100023.81;;;4.27;100.00
25156;BME280;71253;51.496;7.606;2023-12-20T06:21:48;100014.66;;;4.36;100.00
25156;BME280;71253;51.496;7.606;2023-12-20T06:26:49;100021.63;;;4.42;100.00
25156;BME280;71253;51.496;7.606;2023-12-20T06:31:51;100026.00;;;4.46;100.00
25156;BME280;71253;51.496;7.606;2023-12-20T06:36:52;100029.50;;;4.51;100.00
25156;BME280;71253;51.496;7.606;2023-12-20T06:41:54;100024.38;;;4.51;100.00
25156;BME280;71253;51.496;7.606;2023-12-20T06:46:55;100022.78;;;4.55;100.00
25156;BME280;71253;51.496;7.606;2023-12-20T06:51:57;100021.03;;;4.54;100.00
25156;BME280;71253;51.496;7.606;2023-12-20T06:56:59;100030.41;;;4.52;100.00
25156;BME280;71253;51.496;7.606;2023-12-20T07:02:00;100021.13;;;4.57;100.00
25156;BME280;71253;51.496;7.606;2023-12-20T07:07:02;100025.44;;;4.59;100.00
25156;BME280;71253;51.496;7.606;2023-12-20T07:12:04;100029.72;;;4.59;100.00
25156;BME280;71253;51.496;7.606;2023-12-20T07:17:06;100020.25;;;4.56;100.00
25156;BME280;71253;51.496;7.606;2023-12-20T07:22:07;100018.72;;;4.63;100.00
25156;BME280;71253;51.496;7.606;2023-12-20T07:27:09;100029.00;;;4.64;100.00
25156;BME280;71253;51.496;7.606;2023-12-20T07:32:11;100034.97;;;4.65;100.00
25156;BME280;71253;51.496;7.606;2023-12-20T07:37:12;100035.00;;;4.66;100.00
25156;BME280;71253;51.496;7.606;2023-12-20T07:42:14;100031.59;;;4.67;100.00
25156;BME280;71253;51.496;7.606;2023-12-20T07:47:15;100035.97;;;4.70;100.00
25156;BME280;71253;51.496;7.606;2023-12-20T07:52:18;100033.53;;;4.76;100.00
25156;BME280;71253;51.496;7.606;2023-12-20T07:57:19;100035.31;;;4.79;100.00
25156;BME280;71253;51.496;7.606;2023-12-20T08:02:21;100032.66;;;4.75;100.00
25156;BME280;71253;51.496;7.606;2023-12-20T08:07:22;100042.09;;;4.77;100.00
25156;BME280;71253;51.496;7.606;2023-12-20T08:12:24;100030.22;;;4.80;100.00
25156;BME280;71253;51.496;7.606;2023-12-20T08:17:25;100023.38;;;4.81;100.00
25156;BME280;71253;51.496;7.606;2023-12-20T08:22:27;100025.19;;;4.85;100.00
25156;BME280;71253;51.496;7.606;2023-12-20T08:27:29;100024.38;;;4.86;100.00
25156;BME280;71253;51.496;7.606;2023-12-20T08:32:30;100022.75;;;4.89;100.00
25156;BME280;71253;51.496;7.606;2023-12-20T08:37:32;100031.31;;;4.91;100.00
25156;BME280;71253;51.496;7.606;2023-12-20T08:42:33;100020.22;;;4.91;100.00
25156;BME280;71253;51.496;7.606;2023-12-20T08:47:35;100023.63;;;4.91;100.00
25156;BME280;71253;51.496;7.606;2023-12-20T08:52:36;100032.31;;;4.96;100.00
25156;BME280;71253;51.496;7.606;2023-12-20T08:57:38;100025.50;;;4.98;100.00
25156;BME280;71253;51.496;7.606;2023-12-20T09:02:40;100018.72;;;5.00;100.00
25156;BME280;71253;51.496;7.606;2023-12-20T09:07:41;100023.06;;;5.05;100.00
25156;BME280;71253;51.496;7.606;2023-12-20T09:12:43;100026.50;;;5.05;100.00
25156;BME280;71253;51.496;7.606;2023-12-20T09:17:44;100025.69;;;5.06;100.00
25156;BME280;71253;51.496;7.606;2023-12-20T09:22:46;100012.03;;;5.09;100.00
25156;BME280;71253;51.496;7.606;2023-12-20T09:27:47;100002.66;;;5.09;100.00
25156;BME280;71253;51.496;7.606;2023-12-20T09:32:49;100007.91;;;5.15;100.00
25156;BME280;71253;51.496;7.606;2023-12-20T09:37:51;99995.16;;;5.18;100.00
25156;BME280;71253;51.496;7.606;2023-12-20T09:42:57;99999.44;;;5.19;100.00
25156;BME280;71253;51.496;7.606;2023-12-20T09:47:59;99996.88;;;5.19;100.00
25156;BME280;71253;51.496;7.606;2023-12-20T09:53:01;99989.22;;;5.21;100.00
25156;BME280;71253;51.496;7.606;2023-12-20T09:58:03;99991.00;;;5.23;100.00
25156;BME280;71253;51.496;7.606;2023-12-20T10:03:06;99994.53;;;5.28;100.00
25156;BME280;71253;51.496;7.606;2023-12-20T10:08:08;99989.56;;;5.38;100.00
25156;BME280;71253;51.496;7.606;2023-12-20T10:13:11;99987.16;;;5.45;100.00
25156;BME280;71253;51.496;7.606;2023-12-20T10:18:13;99980.31;;;5.44;100.00
25156;BME280;71253;51.496;7.606;2023-12-20T10:23:15;99976.88;;;5.44;100.00
25156;BME280;71253;51.496;7.606;2023-12-20T10:28:17;99973.47;;;5.45;100.00
25156;BME280;71253;51.496;7.606;2023-12-20T10:33:28;99963.13;;;5.42;100.00
25156;BME280;71253;51.496;7.606;2023-12-20T10:38:30;99965.75;;;5.45;100.00
25156;BME280;71253;51.496;7.606;2023-12-20T10:43:32;99962.25;;;5.40;100.00
25156;BME280;71253;51.496;7.606;2023-12-20T10:48:35;99958.69;;;5.33;100.00
25156;BME280;71253;51.496;7.606;2023-12-20T10:53:38;99959.50;;;5.31;100.00
25156;BME280;71253;51.496;7.606;2023-12-20T10:58:41;99959.50;;;5.31;100.00
25156;BME280;71253;51.496;7.606;2023-12-20T11:14:22;99954.47;;;5.37;100.00
25156;BME280;71253;51.496;7.606;2023-12-20T11:19:25;99948.47;;;5.35;100.00
25156;BME280;71253;51.496;7.606;2023-12-20T11:24:26;99952.81;;;5.39;100.00
25156;BME280;71253;51.496;7.606;2023-12-20T11:29:35;99942.63;;;5.43;100.00
25156;BME280;71253;51.496;7.606;2023-12-20T11:34:37;99950.28;;;5.42;100.00
25156;BME280;71253;51.496;7.606;2023-12-20T11:39:38;99937.56;;;5.46;100.00
25156;BME280;71253;51.496;7.606;2023-12-20T11:44:42;99938.50;;;5.50;100.00
25156;BME280;71253;51.496;7.606;2023-12-20T11:49:43;99927.50;;;5.57;100.00
25156;BME280;71253;51.496;7.606;2023-12-20T11:54:45;99935.38;;;5.68;100.00
25156;BME280;71253;51.496;7.606;2023-12-20T11:59:46;99939.78;;;5.73;100.00
25156;BME280;71253;51.496;7.606;2023-12-20T12:04:49;99932.75;;;5.65;100.00
25156;BME280;71253;51.496;7.606;2023-12-20T12:09:51;99928.34;;;5.56;100.00
25156;BME280;71253;51.496;7.606;2023-12-20T12:14:53;99921.44;;;5.53;100.00
25156;BME280;71253;51.496;7.606;2023-12-20T12:20:03;99919.59;;;5.46;100.00
25156;BME280;71253;51.496;7.606;2023-12-20T12:25:12;99917.78;;;5.41;100.00
25156;BME280;71253;51.496;7.606;2023-12-20T12:30:15;99895.47;;;5.37;100.00
25156;BME280;71253;51.496;7.606;2023-12-20T12:35:18;99896.31;;;5.37;100.00
25156;BME280;71253;51.496;7.606;2023-12-20T12:40:20;99895.47;;;5.37;100.00
25156;BME280;71253;51.496;7.606;2023-12-20T12:45:21;99888.47;;;5.28;100.00
25156;BME280;71253;51.496;7.606;2023-12-20T12:50:23;99889.19;;;5.21;100.00
25156;BME280;71253;51.496;7.606;2023-12-20T12:55:24;99895.16;;;5.21;100.00
25156;BME280;71253;51.496;7.606;2023-12-20T13:00:26;99887.53;;;5.24;100.00
25156;BME280;71253;51.496;7.606;2023-12-20T13:05:28;99867.25;;;5.37;100.00
25156;BME280;71253;51.496;7.606;2023-12-20T13:10:30;99875.22;;;5.52;100.00
25156;BME280;71253;51.496;7.606;2023-12-20T13:15:31;99859.75;;;5.49;100.00
25156;BME280;71253;51.496;7.606;2023-12-20T13:20:33;99837.75;;;5.63;100.00
25156;BME280;71253;51.496;7.606;2023-12-20T13:25:35;99845.63;;;5.71;100.00
25156;BME280;71253;51.496;7.606;2023-12-20T13:30:36;99826.69;;;5.66;100.00
25156;BME280;71253;51.496;7.606;2023-12-20T13:35:38;99833.47;;;5.61;100.00
25156;BME280;71253;51.496;7.606;2023-12-20T13:40:39;99836.88;;;5.61;100.00
25156;BME280;71253;51.496;7.606;2023-12-20T13:45:41;99841.19;;;5.62;100.00
25156;BME280;71253;51.496;7.606;2023-12-20T13:50:43;99818.91;;;5.61;100.00
25156;BME280;71253;51.496;7.606;2023-12-20T13:55:44;99812.97;;;5.64;100.00
25156;BME280;71253;51.496;7.606;2023-12-20T14:00:46;99804.47;;;5.66;100.00
25156;BME280;71253;51.496;7.606;2023-12-20T14:05:47;99812.16;;;5.66;100.00
25156;BME280;71253;51.496;7.606;2023-12-20T14:10:49;99819.81;;;5.63;100.00
25156;BME280;71253;51.496;7.606;2023-12-20T14:15:51;99820.56;;;5.58;100.00
25156;BME280;71253;51.496;7.606;2023-12-20T14:20:53;99827.41;;;5.59;100.00
25156;BME280;71253;51.496;7.606;2023-12-20T14:25:54;99826.56;;;5.58;100.00
25156;BME280;71253;51.496;7.606;2023-12-20T14:30:56;99811.94;;;5.54;100.00
25156;BME280;71253;51.496;7.606;2023-12-20T14:35:57;99805.94;;;5.52;100.00
25156;BME280;71253;51.496;7.606;2023-12-20T14:40:59;99809.31;;;5.49;100.00
25156;BME280;71253;51.496;7.606;2023-12-20T14:46:01;99797.31;;;5.48;100.00
25156;BME280;71253;51.496;7.606;2023-12-20T14:51:03;99803.34;;;5.50;100.00
25156;BME280;71253;51.496;7.606;2023-12-20T14:56:05;99801.66;;;5.52;100.00
25156;BME280;71253;51.496;7.606;2023-12-20T15:01:07;99807.72;;;5.56;100.00
25156;BME280;71253;51.496;7.606;2023-12-20T15:06:08;99810.22;;;5.53;100.00
25156;BME280;71253;51.496;7.606;2023-12-20T15:11:11;99809.38;;;5.54;100.00
25156;BME280;71253;51.496;7.606;2023-12-20T15:16:12;99805.09;;;5.53;100.00
25156;BME280;71253;51.496;7.606;2023-12-20T15:21:15;99793.97;;;5.54;100.00
25156;BME280;71253;51.496;7.606;2023-12-20T15:26:16;99785.34;;;5.49;100.00
25156;BME280;71253;51.496;7.606;2023-12-20T15:31:18;99794.81;;;5.53;100.00
25156;BME280;71253;51.496;7.606;2023-12-20T15:36:19;99799.16;;;5.57;100.00
25156;BME280;71253;51.496;7.606;2023-12-20T15:41:22;99799.25;;;5.62;100.00
25156;BME280;71253;51.496;7.606;2023-12-20T15:46:24;99788.13;;;5.63;100.00
25156;BME280;71253;51.496;7.606;2023-12-20T15:51:25;99797.53;;;5.62;100.00
25156;BME280;71253;51.496;7.606;2023-12-20T15:56:27;99786.44;;;5.65;100.00
25156;BME280;71253;51.496;7.606;2023-12-20T16:01:31;99776.22;;;5.66;100.00
25156;BME280;71253;51.496;7.606;2023-12-20T16:06:33;99776.22;;;5.66;100.00
25156;BME280;71253;51.496;7.606;2023-12-20T16:11:34;99771.88;;;5.64;100.00
25156;BME280;71253;51.496;7.606;2023-12-20T16:16:36;99762.56;;;5.70;100.00
25156;BME280;71253;51.496;7.606;2023-12-20T16:21:38;99764.28;;;5.70;100.00
25156;BME280;71253;51.496;7.606;2023-12-20T16:26:39;99764.34;;;5.74;100.00
25156;BME280;71253;51.496;7.606;2023-12-20T16:31:41;99763.56;;;5.78;100.00
25156;BME280;71253;51.496;7.606;2023-12-20T16:36:50;99768.69;;;5.78;100.00
25156;BME280;71253;51.496;7.606;2023-12-20T16:42:01;99762.69;;;5.76;100.00
25156;BME280;71253;51.496;7.606;2023-12-20T16:47:03;99766.13;;;5.78;100.00
25156;BME280;71253;51.496;7.606;2023-12-20T16:52:05;99767.09;;;5.85;100.00
25156;BME280;71253;51.496;7.606;2023-12-20T16:57:07;99745.66;;;5.83;100.00
25156;BME280;71253;51.496;7.606;2023-12-20T17:02:08;99751.69;;;5.87;100.00
25156;BME280;71253;51.496;7.606;2023-12-20T17:07:10;99751.75;;;5.90;100.00
25156;BME280;71253;51.496;7.606;2023-12-20T17:12:12;99738.81;;;5.84;100.00
25156;BME280;71253;51.496;7.606;2023-12-20T17:17:13;99732.78;;;5.80;100.00
25156;BME280;71253;51.496;7.606;2023-12-20T17:22:15;99725.06;;;5.78;100.00
25156;BME280;71253;51.496;7.606;2023-12-20T17:27:16;99716.44;;;5.73;100.00
25156;BME280;71253;51.496;7.606;2023-12-20T17:32:18;99710.50;;;5.79;100.00
25156;BME280;71253;51.496;7.606;2023-12-20T17:37:19;99717.34;;;5.78;100.00
25156;BME280;71253;51.496;7.606;2023-12-20T17:42:21;99716.59;;;5.84;100.00
25156;BME280;71253;51.496;7.606;2023-12-20T17:47:22;99711.38;;;5.81;100.00
25156;BME280;71253;51.496;7.606;2023-12-20T17:52:25;99701.94;;;5.77;100.00
25156;BME280;71253;51.496;7.606;2023-12-20T17:57:26;99681.34;;;5.74;100.00
25156;BME280;71253;51.496;7.606;2023-12-20T18:02:28;99688.19;;;5.73;100.00
25156;BME280;71253;51.496;7.606;2023-12-20T18:07:29;99671.09;;;5.75;100.00
25156;BME280;71253;51.496;7.606;2023-12-20T18:12:31;99666.88;;;5.80;100.00
25156;BME280;71253;51.496;7.606;2023-12-20T18:17:32;99661.81;;;5.84;100.00
25156;BME280;71253;51.496;7.606;2023-12-20T18:22:34;99651.69;;;5.93;100.00
25156;BME280;71253;51.496;7.606;2023-12-20T18:27:36;99650.69;;;5.86;100.00
25156;BME280;71253;51.496;7.606;2023-12-20T18:32:37;99638.75;;;5.88;100.00
25156;BME280;71253;51.496;7.606;2023-12-20T18:37:39;99643.06;;;5.91;100.00
25156;BME280;71253;51.496;7.606;2023-12-20T18:42:41;99628.50;;;5.88;100.00
25156;BME280;71253;51.496;7.606;2023-12-20T18:47:42;99623.47;;;5.94;100.00
25156;BME280;71253;51.496;7.606;2023-12-20T18:52:44;99618.38;;;5.99;100.00
25156;BME280;71253;51.496;7.606;2023-12-20T18:57:45;99603.00;;;6.02;100.00
25156;BME280;71253;51.496;7.606;2023-12-20T19:02:47;99603.06;;;6.08;100.00
25156;BME280;71253;51.496;7.606;2023-12-20T19:07:48;99603.03;;;6.05;100.00
25156;BME280;71253;51.496;7.606;2023-12-20T19:12:50;99600.47;;;6.03;100.00
25156;BME280;71253;51.496;7.606;2023-12-20T19:17:52;99580.72;;;5.99;100.00
25156;BME280;71253;51.496;7.606;2023-12-20T19:22:53;99566.16;;;5.98;100.00
25156;BME280;71253;51.496;7.606;2023-12-20T19:27:55;99567.03;;;6.00;100.00
25156;BME280;71253;51.496;7.606;2023-12-20T19:32:56;99550.78;;;6.03;100.00
25156;BME280;71253;51.496;7.606;2023-12-20T19:37:58;99552.44;;;5.98;100.00
25156;BME280;71253;51.496;7.606;2023-12-20T19:42:59;99541.34;;;5.99;100.00
25156;BME280;71253;51.496;7.606;2023-12-20T19:48:01;99543.84;;;5.96;100.00
25156;BME280;71253;51.496;7.606;2023-12-20T19:53:02;99534.44;;;5.96;100.00
25156;BME280;71253;51.496;7.606;2023-12-20T19:58:04;99525.88;;;5.94;100.00
25156;BME280;71253;51.496;7.606;2023-12-20T20:03:06;99518.19;;;5.94;100.00
25156;BME280;71253;51.496;7.606;2023-12-20T20:08:07;99514.75;;;5.97;100.00
25156;BME280;71253;51.496;7.606;2023-12-20T20:13:09;99493.38;;;5.98;100.00
25156;BME280;71253;51.496;7.606;2023-12-20T20:18:10;99495.13;;;6.00;100.00
25156;BME280;71253;51.496;7.606;2023-12-20T20:23:12;99473.72;;;5.98;100.00
25156;BME280;71253;51.496;7.606;2023-12-20T20:28:13;99461.69;;;5.97;100.00
25156;BME280;71253;51.496;7.606;2023-12-20T20:33:15;99453.22;;;6.04;100.00
25156;BME280;71253;51.496;7.606;2023-12-20T20:38:17;99455.78;;;6.06;100.00
25156;BME280;71253;51.496;7.606;2023-12-20T20:43:18;99454.13;;;6.10;100.00
25156;BME280;71253;51.496;7.606;2023-12-20T20:48:20;99439.56;;;6.10;100.00
25156;BME280;71253;51.496;7.606;2023-12-20T20:53:24;99445.56;;;6.14;100.00
25156;BME280;71253;51.496;7.606;2023-12-20T20:58:26;99439.56;;;6.13;100.00
25156;BME280;71253;51.496;7.606;2023-12-20T21:03:28;99448.19;;;6.15;100.00
25156;BME280;71253;51.496;7.606;2023-12-20T21:08:30;99430.19;;;6.17;100.00
25156;BME280;71253;51.496;7.606;2023-12-20T21:13:32;99434.47;;;6.19;100.00
25156;BME280;71253;51.496;7.606;2023-12-20T21:18:33;99429.34;;;6.19;100.00
25156;BME280;71253;51.496;7.606;2023-12-20T21:23:35;99424.25;;;6.21;100.00
25156;BME280;71253;51.496;7.606;2023-12-20T21:28:36;99422.53;;;6.24;100.00
25156;BME280;71253;51.496;7.606;2023-12-20T21:33:39;99413.13;;;6.25;100.00
25156;BME280;71253;51.496;7.606;2023-12-20T21:38:40;99407.13;;;6.24;100.00
25156;BME280;71253;51.496;7.606;2023-12-20T21:43:42;99401.16;;;6.28;100.00
25156;BME280;71253;51.496;7.606;2023-12-20T21:48:43;99378.03;;;6.30;100.00
25156;BME280;71253;51.496;7.606;2023-12-20T21:53:47;99358.38;;;6.33;100.00
25156;BME280;71253;51.496;7.606;2023-12-20T21:58:49;99341.25;;;6.31;100.00
25156;BME280;71253;51.496;7.606;2023-12-20T22:03:50;99335.25;;;6.35;100.00
25156;BME280;71253;51.496;7.606;2023-12-20T22:08:52;99332.69;;;6.33;100.00
25156;BME280;71253;51.496;7.606;2023-12-20T22:13:53;99329.25;;;6.35;100.00
25156;BME280;71253;51.496;7.606;2023-12-20T22:19:00;99317.31;;;6.38;100.00
25156;BME280;71253;51.496;7.606;2023-12-20T22:24:01;99313.88;;;6.39;100.00
25156;BME280;71253;51.496;7.606;2023-12-20T22:29:03;99334.44;;;6.41;100.00
25156;BME280;71253;51.496;7.606;2023-12-20T22:34:05;99336.19;;;6.42;100.00
25156;BME280;71253;51.496;7.606;2023-12-20T22:39:06;99345.59;;;6.43;100.00
25156;BME280;71253;51.496;7.606;2023-12-20T22:44:08;99346.50;;;6.49;100.00
25156;BME280;71253;51.496;7.606;2023-12-20T22:49:09;99348.16;;;6.44;100.00
25156;BME280;71253;51.496;7.606;2023-12-20T22:54:11;99347.34;;;6.48;100.00
25156;BME280;71253;51.496;7.606;2023-12-20T22:59:12;99343.91;;;6.51;100.00
25156;BME280;71253;51.496;7.606;2023-12-20T23:04:14;99338.78;;;6.49;100.00
25156;BME280;71253;51.496;7.606;2023-12-20T23:09:16;99340.50;;;6.50;100.00
25156;BME280;71253;51.496;7.606;2023-12-20T23:14:17;99335.38;;;6.55;100.00
25156;BME280;71253;51.496;7.606;2023-12-20T23:19:19;99322.53;;;6.55;100.00
25156;BME280;71253;51.496;7.606;2023-12-20T23:24:20;99302.00;;;6.58;100.00
25156;BME280;71253;51.496;7.606;2023-12-20T23:29:22;99303.69;;;6.61;100.00
25156;BME280;71253;51.496;7.606;2023-12-20T23:34:24;99284.00;;;6.61;100.00
25156;BME280;71253;51.496;7.606;2023-12-20T23:39:25;99257.44;;;6.61;100.00
25156;BME280;71253;51.496;7.606;2023-12-20T23:44:27;99257.44;;;6.67;100.00
25156;BME280;71253;51.496;7.606;2023-12-20T23:49:29;99241.19;;;6.65;100.00
25156;BME280;71253;51.496;7.606;2023-12-20T23:54:30;99227.47;;;6.66;100.00
25156;BME280;71253;51.496;7.606;2023-12-20T23:59:32;99217.19;;;6.67;100.00
